sensor_id;sensor_type;location;lat;lon;timestamp;P1;durP1;ratioP1;P2;durP2;ratioP2
20945;SDS011;10632;51.276;7.116;2023-04-24T00:01:24;0.52;;;0.25;;
20945;SDS011;10632;51.276;7.116;2023-04-24T00:03:51;0.98;;;0.40;;
20945;SDS011;10632;51.276;7.116;2023-04-24T00:06:18;1.60;;;0.45;;
20945;SDS011;10632;51.276;7.116;2023-04-24T00:08:47;0.60;;;0.40;;
20945;SDS011;10632;51.276;7.116;2023-04-24T00:11:13;1.25;;;0.40;;
20945;SDS011;10632;51.276;7.116;2023-04-24T00:13:40;1.13;;;0.40;;
20945;SDS011;10632;51.276;7.116;2023-04-24T00:16:07;0.77;;;0.38;;
20945;SDS011;10632;51.276;7.116;2023-04-24T00:18:34;1.65;;;0.60;;
20945;SDS011;10632;51.276;7.116;2023-04-24T00:21:01;2.88;;;0.52;;
20945;SDS011;10632;51.276;7.116;2023-04-24T00:23:28;4.07;;;0.70;;
20945;SDS011;10632;51.276;7.116;2023-04-24T00:25:56;1.80;;;0.60;;
20945;SDS011;10632;51.276;7.116;2023-04-24T00:28:23;1.75;;;0.50;;
20945;SDS011;10632;51.276;7.116;2023-04-24T00:30:50;3.20;;;0.70;;
20945;SDS011;10632;51.276;7.116;2023-04-24T00:33:17;1.17;;;0.50;;
20945;SDS011;10632;51.276;7.116;2023-04-24T00:35:44;1.23;;;0.40;;
20945;SDS011;10632;51.276;7.116;2023-04-24T00:38:11;1.60;;;0.70;;
20945;SDS011;10632;51.276;7.116;2023-04-24T00:40:38;1.55;;;0.68;;
20945;SDS011;10632;51.276;7.116;2023-04-24T00:43:06;0.80;;;0.40;;
20945;SDS011;10632;51.276;7.116;2023-04-24T00:45:33;1.13;;;0.55;;
20945;SDS011;10632;51.276;7.116;2023-04-24T00:48:00;0.90;;;0.45;;
20945;SDS011;10632;51.276;7.116;2023-04-24T00:50:27;2.63;;;0.80;;
20945;SDS011;10632;51.276;7.116;2023-04-24T00:52:55;1.10;;;0.50;;
20945;SDS011;10632;51.276;7.116;2023-04-24T00:55:23;1.98;;;0.60;;
20945;SDS011;10632;51.276;7.116;2023-04-24T00:57:51;1.70;;;0.70;;
20945;SDS011;10632;51.276;7.116;2023-04-24T01:00:20;0.93;;;0.45;;
20945;SDS011;10632;51.276;7.116;2023-04-24T01:02:47;2.17;;;0.80;;
20945;SDS011;10632;51.276;7.116;2023-04-24T01:05:16;1.67;;;0.75;;
20945;SDS011;10632;51.276;7.116;2023-04-24T01:07:46;1.42;;;0.60;;
20945;SDS011;10632;51.276;7.116;2023-04-24T01:10:14;3.53;;;0.57;;
20945;SDS011;10632;51.276;7.116;2023-04-24T01:12:42;2.58;;;0.93;;
20945;SDS011;10632;51.276;7.116;2023-04-24T01:15:10;1.48;;;0.75;;
20945;SDS011;10632;51.276;7.116;2023-04-24T01:17:38;2.53;;;0.82;;
20945;SDS011;10632;51.276;7.116;2023-04-24T01:20:05;1.80;;;0.73;;
20945;SDS011;10632;51.276;7.116;2023-04-24T01:22:35;2.00;;;0.80;;
20945;SDS011;10632;51.276;7.116;2023-04-24T01:25:02;2.22;;;1.00;;
20945;SDS011;10632;51.276;7.116;2023-04-24T01:27:30;2.67;;;0.90;;
20945;SDS011;10632;51.276;7.116;2023-04-24T01:29:57;2.58;;;0.90;;
20945;SDS011;10632;51.276;7.116;2023-04-24T01:32:24;2.03;;;0.77;;
20945;SDS011;10632;51.276;7.116;2023-04-24T01:34:52;2.75;;;0.93;;
20945;SDS011;10632;51.276;7.116;2023-04-24T01:37:19;1.73;;;0.80;;
20945;SDS011;10632;51.276;7.116;2023-04-24T01:39:47;2.63;;;0.80;;
20945;SDS011;10632;51.276;7.116;2023-04-24T01:42:14;2.20;;;1.00;;
20945;SDS011;10632;51.276;7.116;2023-04-24T01:44:42;7.47;;;0.98;;
20945;SDS011;10632;51.276;7.116;2023-04-24T01:47:09;2.90;;;0.90;;
20945;SDS011;10632;51.276;7.116;2023-04-24T01:49:37;4.28;;;1.20;;
20945;SDS011;10632;51.276;7.116;2023-04-24T01:52:05;2.95;;;1.10;;
20945;SDS011;10632;51.276;7.116;2023-04-24T01:54:32;5.15;;;1.40;;
20945;SDS011;10632;51.276;7.116;2023-04-24T01:57:00;3.45;;;1.65;;
20945;SDS011;10632;51.276;7.116;2023-04-24T01:59:27;6.25;;;1.65;;
20945;SDS011;10632;51.276;7.116;2023-04-24T02:01:55;4.93;;;1.85;;
20945;SDS011;10632;51.276;7.116;2023-04-24T02:04:21;3.42;;;1.52;;
20945;SDS011;10632;51.276;7.116;2023-04-24T02:06:48;3.88;;;1.70;;
20945;SDS011;10632;51.276;7.116;2023-04-24T02:09:15;4.35;;;1.42;;
20945;SDS011;10632;51.276;7.116;2023-04-24T02:11:42;4.18;;;1.42;;
20945;SDS011;10632;51.276;7.116;2023-04-24T02:14:10;4.60;;;1.77;;
20945;SDS011;10632;51.276;7.116;2023-04-24T02:16:37;4.32;;;1.73;;
20945;SDS011;10632;51.276;7.116;2023-04-24T02:19:04;5.05;;;1.73;;
20945;SDS011;10632;51.276;7.116;2023-04-24T02:21:31;4.72;;;1.70;;
20945;SDS011;10632;51.276;7.116;2023-04-24T02:23:58;5.57;;;2.00;;
20945;SDS011;10632;51.276;7.116;2023-04-24T02:26:25;6.75;;;2.30;;
20945;SDS011;10632;51.276;7.116;2023-04-24T02:28:55;8.85;;;2.60;;
20945;SDS011;10632;51.276;7.116;2023-04-24T02:31:23;4.65;;;2.20;;
20945;SDS011;10632;51.276;7.116;2023-04-24T02:33:50;10.15;;;2.92;;
20945;SDS011;10632;51.276;7.116;2023-04-24T02:36:17;8.23;;;2.55;;
20945;SDS011;10632;51.276;7.116;2023-04-24T02:38:44;6.60;;;2.35;;
20945;SDS011;10632;51.276;7.116;2023-04-24T02:41:11;6.70;;;2.45;;
20945;SDS011;10632;51.276;7.116;2023-04-24T02:43:41;6.57;;;2.65;;
20945;SDS011;10632;51.276;7.116;2023-04-24T02:46:08;6.70;;;2.90;;
20945;SDS011;10632;51.276;7.116;2023-04-24T02:48:36;10.95;;;2.97;;
20945;SDS011;10632;51.276;7.116;2023-04-24T02:51:03;6.63;;;2.83;;
20945;SDS011;10632;51.276;7.116;2023-04-24T02:53:31;7.07;;;2.78;;
20945;SDS011;10632;51.276;7.116;2023-04-24T02:55:58;8.93;;;3.00;;
20945;SDS011;10632;51.276;7.116;2023-04-24T02:58:25;9.98;;;2.83;;
20945;SDS011;10632;51.276;7.116;2023-04-24T03:00:53;6.88;;;2.35;;
20945;SDS011;10632;51.276;7.116;2023-04-24T03:03:23;8.10;;;2.92;;
20945;SDS011;10632;51.276;7.116;2023-04-24T03:05:54;7.38;;;3.10;;
20945;SDS011;10632;51.276;7.116;2023-04-24T03:08:22;8.80;;;2.88;;
20945;SDS011;10632;51.276;7.116;2023-04-24T03:10:49;8.00;;;3.03;;
20945;SDS011;10632;51.276;7.116;2023-04-24T03:13:15;10.52;;;3.42;;
20945;SDS011;10632;51.276;7.116;2023-04-24T03:15:42;7.65;;;2.90;;
20945;SDS011;10632;51.276;7.116;2023-04-24T03:18:09;13.15;;;3.67;;
20945;SDS011;10632;51.276;7.116;2023-04-24T03:20:36;7.90;;;3.05;;
20945;SDS011;10632;51.276;7.116;2023-04-24T03:23:16;10.10;;;3.20;;
20945;SDS011;10632;51.276;7.116;2023-04-24T03:25:46;8.73;;;3.38;;
20945;SDS011;10632;51.276;7.116;2023-04-24T03:28:13;9.27;;;3.05;;
20945;SDS011;10632;51.276;7.116;2023-04-24T03:30:42;9.50;;;3.03;;
20945;SDS011;10632;51.276;7.116;2023-04-24T03:33:09;11.88;;;3.63;;
20945;SDS011;10632;51.276;7.116;2023-04-24T03:35:36;12.30;;;3.75;;
20945;SDS011;10632;51.276;7.116;2023-04-24T03:38:03;11.80;;;3.70;;
20945;SDS011;10632;51.276;7.116;2023-04-24T03:40:31;15.85;;;3.90;;
20945;SDS011;10632;51.276;7.116;2023-04-24T03:42:59;12.90;;;3.67;;
20945;SDS011;10632;51.276;7.116;2023-04-24T03:45:26;9.32;;;3.28;;
20945;SDS011;10632;51.276;7.116;2023-04-24T03:47:53;15.73;;;4.38;;
20945;SDS011;10632;51.276;7.116;2023-04-24T03:50:20;13.98;;;3.53;;
20945;SDS011;10632;51.276;7.116;2023-04-24T03:52:48;8.48;;;3.28;;
20945;SDS011;10632;51.276;7.116;2023-04-24T03:55:14;12.48;;;3.38;;
20945;SDS011;10632;51.276;7.116;2023-04-24T03:57:43;10.00;;;3.20;;
20945;SDS011;10632;51.276;7.116;2023-04-24T04:00:11;11.20;;;3.17;;
20945;SDS011;10632;51.276;7.116;2023-04-24T04:02:39;8.27;;;3.50;;
20945;SDS011;10632;51.276;7.116;2023-04-24T04:05:06;9.63;;;3.63;;
20945;SDS011;10632;51.276;7.116;2023-04-24T04:07:34;10.85;;;3.50;;
20945;SDS011;10632;51.276;7.116;2023-04-24T04:10:01;12.05;;;3.58;;
20945;SDS011;10632;51.276;7.116;2023-04-24T04:12:28;12.18;;;3.60;;
20945;SDS011;10632;51.276;7.116;2023-04-24T04:14:56;10.30;;;3.70;;
20945;SDS011;10632;51.276;7.116;2023-04-24T04:17:23;11.18;;;3.70;;
20945;SDS011;10632;51.276;7.116;2023-04-24T04:19:50;10.07;;;4.00;;
20945;SDS011;10632;51.276;7.116;2023-04-24T04:22:18;12.15;;;3.90;;
20945;SDS011;10632;51.276;7.116;2023-04-24T04:24:45;9.05;;;3.50;;
20945;SDS011;10632;51.276;7.116;2023-04-24T04:27:16;9.32;;;3.67;;
20945;SDS011;10632;51.276;7.116;2023-04-24T04:29:43;11.35;;;4.43;;
20945;SDS011;10632;51.276;7.116;2023-04-24T04:32:12;12.32;;;4.22;;
20945;SDS011;10632;51.276;7.116;2023-04-24T04:34:40;13.02;;;4.30;;
20945;SDS011;10632;51.276;7.116;2023-04-24T04:37:08;12.38;;;3.97;;
20945;SDS011;10632;51.276;7.116;2023-04-24T04:39:35;12.98;;;3.65;;
20945;SDS011;10632;51.276;7.116;2023-04-24T04:42:02;12.80;;;4.35;;
20945;SDS011;10632;51.276;7.116;2023-04-24T04:44:29;15.65;;;4.55;;
20945;SDS011;10632;51.276;7.116;2023-04-24T04:46:56;11.48;;;3.40;;
20945;SDS011;10632;51.276;7.116;2023-04-24T04:49:26;10.98;;;3.78;;
20945;SDS011;10632;51.276;7.116;2023-04-24T04:51:54;9.75;;;3.63;;
20945;SDS011;10632;51.276;7.116;2023-04-24T04:54:21;10.32;;;3.83;;
20945;SDS011;10632;51.276;7.116;2023-04-24T04:56:49;9.05;;;3.30;;
20945;SDS011;10632;51.276;7.116;2023-04-24T04:59:16;13.02;;;3.38;;
20945;SDS011;10632;51.276;7.116;2023-04-24T05:01:43;10.88;;;3.45;;
20945;SDS011;10632;51.276;7.116;2023-04-24T05:04:10;9.43;;;3.55;;
20945;SDS011;10632;51.276;7.116;2023-04-24T05:06:38;10.88;;;3.80;;
20945;SDS011;10632;51.276;7.116;2023-04-24T05:09:05;9.30;;;3.50;;
20945;SDS011;10632;51.276;7.116;2023-04-24T05:11:32;9.13;;;3.20;;
20945;SDS011;10632;51.276;7.116;2023-04-24T05:13:59;10.98;;;3.92;;
20945;SDS011;10632;51.276;7.116;2023-04-24T05:16:26;13.52;;;3.90;;
20945;SDS011;10632;51.276;7.116;2023-04-24T05:18:53;9.40;;;3.38;;
20945;SDS011;10632;51.276;7.116;2023-04-24T05:21:20;8.18;;;3.42;;
20945;SDS011;10632;51.276;7.116;2023-04-24T05:23:48;9.63;;;3.10;;
20945;SDS011;10632;51.276;7.116;2023-04-24T05:26:15;11.35;;;3.70;;
20945;SDS011;10632;51.276;7.116;2023-04-24T05:28:42;10.60;;;3.58;;
20945;SDS011;10632;51.276;7.116;2023-04-24T05:31:09;12.10;;;3.38;;
20945;SDS011;10632;51.276;7.116;2023-04-24T05:33:37;10.85;;;3.40;;
20945;SDS011;10632;51.276;7.116;2023-04-24T05:36:06;10.45;;;3.22;;
20945;SDS011;10632;51.276;7.116;2023-04-24T05:38:33;9.73;;;3.42;;
20945;SDS011;10632;51.276;7.116;2023-04-24T05:41:01;11.75;;;3.58;;
20945;SDS011;10632;51.276;7.116;2023-04-24T05:43:28;9.38;;;3.20;;
20945;SDS011;10632;51.276;7.116;2023-04-24T05:45:56;9.82;;;3.08;;
20945;SDS011;10632;51.276;7.116;2023-04-24T05:48:25;7.78;;;3.30;;
20945;SDS011;10632;51.276;7.116;2023-04-24T05:50:52;8.13;;;3.17;;
20945;SDS011;10632;51.276;7.116;2023-04-24T05:53:19;7.88;;;2.85;;
20945;SDS011;10632;51.276;7.116;2023-04-24T05:55:47;7.82;;;2.80;;
20945;SDS011;10632;51.276;7.116;2023-04-24T05:58:15;7.75;;;2.85;;
20945;SDS011;10632;51.276;7.116;2023-04-24T06:00:42;10.15;;;3.25;;
20945;SDS011;10632;51.276;7.116;2023-04-24T06:03:11;7.97;;;2.95;;
20945;SDS011;10632;51.276;7.116;2023-04-24T06:05:38;15.00;;;4.03;;
20945;SDS011;10632;51.276;7.116;2023-04-24T06:08:05;8.85;;;2.67;;
20945;SDS011;10632;51.276;7.116;2023-04-24T06:10:32;11.57;;;3.63;;
20945;SDS011;10632;51.276;7.116;2023-04-24T06:12:58;8.60;;;3.25;;
20945;SDS011;10632;51.276;7.116;2023-04-24T06:15:28;9.23;;;3.20;;
20945;SDS011;10632;51.276;7.116;2023-04-24T06:17:56;12.95;;;3.42;;
20945;SDS011;10632;51.276;7.116;2023-04-24T06:20:23;10.60;;;3.20;;
20945;SDS011;10632;51.276;7.116;2023-04-24T06:22:50;10.40;;;3.50;;
20945;SDS011;10632;51.276;7.116;2023-04-24T06:25:20;8.73;;;3.13;;
20945;SDS011;10632;51.276;7.116;2023-04-24T06:27:47;8.75;;;3.38;;
20945;SDS011;10632;51.276;7.116;2023-04-24T06:30:14;8.95;;;3.30;;
20945;SDS011;10632;51.276;7.116;2023-04-24T06:32:46;8.25;;;2.97;;
20945;SDS011;10632;51.276;7.116;2023-04-24T06:35:12;10.75;;;3.17;;
20945;SDS011;10632;51.276;7.116;2023-04-24T06:37:40;10.27;;;3.17;;
20945;SDS011;10632;51.276;7.116;2023-04-24T06:40:08;10.48;;;3.50;;
20945;SDS011;10632;51.276;7.116;2023-04-24T06:42:36;9.60;;;3.38;;
20945;SDS011;10632;51.276;7.116;2023-04-24T06:45:03;9.68;;;3.50;;
20945;SDS011;10632;51.276;7.116;2023-04-24T06:47:33;16.85;;;3.80;;
20945;SDS011;10632;51.276;7.116;2023-04-24T06:50:01;7.07;;;2.78;;
20945;SDS011;10632;51.276;7.116;2023-04-24T06:52:28;9.80;;;3.53;;
20945;SDS011;10632;51.276;7.116;2023-04-24T06:54:59;9.43;;;3.22;;
20945;SDS011;10632;51.276;7.116;2023-04-24T06:57:27;6.93;;;2.60;;
20945;SDS011;10632;51.276;7.116;2023-04-24T06:59:54;7.53;;;2.55;;
20945;SDS011;10632;51.276;7.116;2023-04-24T07:02:21;7.20;;;2.38;;
20945;SDS011;10632;51.276;7.116;2023-04-24T07:04:48;7.80;;;2.45;;
20945;SDS011;10632;51.276;7.116;2023-04-24T07:07:17;5.60;;;2.30;;
20945;SDS011;10632;51.276;7.116;2023-04-24T07:09:44;5.75;;;2.28;;
20945;SDS011;10632;51.276;7.116;2023-04-24T07:12:11;6.80;;;3.00;;
20945;SDS011;10632;51.276;7.116;2023-04-24T07:14:38;9.23;;;2.83;;
20945;SDS011;10632;51.276;7.116;2023-04-24T07:17:05;5.68;;;2.28;;
20945;SDS011;10632;51.276;7.116;2023-04-24T07:19:33;8.40;;;2.50;;
20945;SDS011;10632;51.276;7.116;2023-04-24T07:22:00;8.43;;;2.63;;
20945;SDS011;10632;51.276;7.116;2023-04-24T07:24:29;4.85;;;2.05;;
20945;SDS011;10632;51.276;7.116;2023-04-24T07:26:57;5.85;;;2.08;;
20945;SDS011;10632;51.276;7.116;2023-04-24T07:29:24;5.63;;;2.15;;
20945;SDS011;10632;51.276;7.116;2023-04-24T07:31:52;4.35;;;2.05;;
20945;SDS011;10632;51.276;7.116;2023-04-24T07:34:21;2.95;;;1.40;;
20945;SDS011;10632;51.276;7.116;2023-04-24T07:36:48;4.28;;;1.90;;
20945;SDS011;10632;51.276;7.116;2023-04-24T07:39:15;4.18;;;1.80;;
20945;SDS011;10632;51.276;7.116;2023-04-24T07:41:43;4.18;;;1.60;;
20945;SDS011;10632;51.276;7.116;2023-04-24T07:44:10;4.72;;;1.77;;
20945;SDS011;10632;51.276;7.116;2023-04-24T07:46:37;3.55;;;1.52;;
20945;SDS011;10632;51.276;7.116;2023-04-24T07:49:04;5.65;;;1.25;;
20945;SDS011;10632;51.276;7.116;2023-04-24T07:51:31;3.30;;;1.27;;
20945;SDS011;10632;51.276;7.116;2023-04-24T07:54:03;3.10;;;1.20;;
20945;SDS011;10632;51.276;7.116;2023-04-24T07:56:33;3.97;;;1.10;;
20945;SDS011;10632;51.276;7.116;2023-04-24T07:59:05;2.35;;;0.73;;
20945;SDS011;10632;51.276;7.116;2023-04-24T08:01:31;0.70;;;0.50;;
20945;SDS011;10632;51.276;7.116;2023-04-24T08:03:58;5.05;;;0.60;;
20945;SDS011;10632;51.276;7.116;2023-04-24T08:06:25;1.60;;;0.70;;
20945;SDS011;10632;51.276;7.116;2023-04-24T08:08:55;1.52;;;0.60;;
20945;SDS011;10632;51.276;7.116;2023-04-24T08:11:22;1.02;;;0.40;;
20945;SDS011;10632;51.276;7.116;2023-04-24T08:13:49;0.63;;;0.25;;
20945;SDS011;10632;51.276;7.116;2023-04-24T08:16:17;0.52;;;0.22;;
20945;SDS011;10632;51.276;7.116;2023-04-24T08:18:47;0.20;;;0.10;;
20945;SDS011;10632;51.276;7.116;2023-04-24T08:21:14;0.93;;;0.28;;
20945;SDS011;10632;51.276;7.116;2023-04-24T08:23:42;0.43;;;0.17;;
20945;SDS011;10632;51.276;7.116;2023-04-24T08:26:09;0.47;;;0.17;;
20945;SDS011;10632;51.276;7.116;2023-04-24T08:28:36;0.95;;;0.30;;
20945;SDS011;10632;51.276;7.116;2023-04-24T08:31:06;1.55;;;0.30;;
20945;SDS011;10632;51.276;7.116;2023-04-24T08:33:34;0.70;;;0.30;;
20945;SDS011;10632;51.276;7.116;2023-04-24T08:36:01;0.90;;;0.40;;
20945;SDS011;10632;51.276;7.116;2023-04-24T08:38:30;0.77;;;0.30;;
20945;SDS011;10632;51.276;7.116;2023-04-24T08:41:00;1.10;;;0.25;;
20945;SDS011;10632;51.276;7.116;2023-04-24T08:43:29;0.70;;;0.40;;
20945;SDS011;10632;51.276;7.116;2023-04-24T08:45:56;1.70;;;0.50;;
20945;SDS011;10632;51.276;7.116;2023-04-24T08:48:24;0.60;;;0.22;;
20945;SDS011;10632;51.276;7.116;2023-04-24T08:50:54;0.88;;;0.22;;
20945;SDS011;10632;51.276;7.116;2023-04-24T08:53:21;1.38;;;0.30;;
20945;SDS011;10632;51.276;7.116;2023-04-24T08:55:50;0.52;;;0.10;;
20945;SDS011;10632;51.276;7.116;2023-04-24T08:58:17;0.10;;;0.10;;
20945;SDS011;10632;51.276;7.116;2023-04-24T09:00:45;0.30;;;0.10;;
20945;SDS011;10632;51.276;7.116;2023-04-24T09:03:13;0.20;;;0.10;;
20945;SDS011;10632;51.276;7.116;2023-04-24T09:05:41;1.95;;;0.40;;
20945;SDS011;10632;51.276;7.116;2023-04-24T09:08:14;0.50;;;0.30;;
20945;SDS011;10632;51.276;7.116;2023-04-24T09:10:42;1.83;;;0.30;;
20945;SDS011;10632;51.276;7.116;2023-04-24T09:13:09;0.90;;;0.22;;
20945;SDS011;10632;51.276;7.116;2023-04-24T09:15:37;0.82;;;0.40;;
20945;SDS011;10632;51.276;7.116;2023-04-24T09:18:04;1.25;;;0.50;;
20945;SDS011;10632;51.276;7.116;2023-04-24T09:20:31;1.90;;;0.63;;
20945;SDS011;10632;51.276;7.116;2023-04-24T09:23:23;1.77;;;0.40;;
20945;SDS011;10632;51.276;7.116;2023-04-24T09:25:53;1.77;;;0.73;;
20945;SDS011;10632;51.276;7.116;2023-04-24T09:28:25;3.72;;;0.90;;
20945;SDS011;10632;51.276;7.116;2023-04-24T09:31:02;2.90;;;1.00;;
20945;SDS011;10632;51.276;7.116;2023-04-24T09:33:30;1.85;;;0.80;;
20945;SDS011;10632;51.276;7.116;2023-04-24T09:35:57;2.83;;;1.00;;
20945;SDS011;10632;51.276;7.116;2023-04-24T09:38:31;3.28;;;1.10;;
20945;SDS011;10632;51.276;7.116;2023-04-24T09:41:00;3.70;;;1.17;;
20945;SDS011;10632;51.276;7.116;2023-04-24T09:43:28;4.25;;;1.30;;
20945;SDS011;10632;51.276;7.116;2023-04-24T09:45:56;4.90;;;1.50;;
20945;SDS011;10632;51.276;7.116;2023-04-24T09:48:30;6.55;;;1.30;;
20945;SDS011;10632;51.276;7.116;2023-04-24T09:50:57;3.28;;;1.33;;
20945;SDS011;10632;51.276;7.116;2023-04-24T09:53:25;5.05;;;1.60;;
20945;SDS011;10632;51.276;7.116;2023-04-24T09:55:54;2.65;;;1.13;;
20945;SDS011;10632;51.276;7.116;2023-04-24T09:58:24;5.05;;;1.65;;
20945;SDS011;10632;51.276;7.116;2023-04-24T10:00:53;6.25;;;1.52;;
20945;SDS011;10632;51.276;7.116;2023-04-24T10:03:22;6.03;;;1.80;;
20945;SDS011;10632;51.276;7.116;2023-04-24T10:05:51;3.92;;;1.60;;
20945;SDS011;10632;51.276;7.116;2023-04-24T10:08:18;5.43;;;2.00;;
20945;SDS011;10632;51.276;7.116;2023-04-24T10:10:46;4.35;;;1.50;;
20945;SDS011;10632;51.276;7.116;2023-04-24T10:13:14;6.50;;;2.05;;
20945;SDS011;10632;51.276;7.116;2023-04-24T10:15:42;5.68;;;2.10;;
20945;SDS011;10632;51.276;7.116;2023-04-24T10:18:10;3.72;;;1.50;;
20945;SDS011;10632;51.276;7.116;2023-04-24T10:20:39;3.97;;;1.73;;
20945;SDS011;10632;51.276;7.116;2023-04-24T10:23:07;8.60;;;2.10;;
20945;SDS011;10632;51.276;7.116;2023-04-24T10:25:34;6.75;;;2.03;;
20945;SDS011;10632;51.276;7.116;2023-04-24T10:28:08;11.10;;;2.03;;
20945;SDS011;10632;51.276;7.116;2023-04-24T10:30:37;8.57;;;2.25;;
20945;SDS011;10632;51.276;7.116;2023-04-24T10:33:08;5.35;;;1.75;;
20945;SDS011;10632;51.276;7.116;2023-04-24T10:35:36;5.10;;;1.60;;
20945;SDS011;10632;51.276;7.116;2023-04-24T10:38:09;5.03;;;1.60;;
20945;SDS011;10632;51.276;7.116;2023-04-24T10:40:39;5.43;;;2.05;;
20945;SDS011;10632;51.276;7.116;2023-04-24T10:43:07;6.10;;;1.98;;
20945;SDS011;10632;51.276;7.116;2023-04-24T10:45:37;4.32;;;1.35;;
20945;SDS011;10632;51.276;7.116;2023-04-24T10:48:05;4.63;;;1.50;;
20945;SDS011;10632;51.276;7.116;2023-04-24T10:50:42;10.38;;;2.20;;
20945;SDS011;10632;51.276;7.116;2023-04-24T10:53:15;7.78;;;1.92;;
20945;SDS011;10632;51.276;7.116;2023-04-24T10:55:44;6.15;;;1.60;;
20945;SDS011;10632;51.276;7.116;2023-04-24T10:58:12;7.18;;;1.70;;
20945;SDS011;10632;51.276;7.116;2023-04-24T11:00:48;8.85;;;2.05;;
20945;SDS011;10632;51.276;7.116;2023-04-24T11:03:23;10.48;;;1.95;;
20945;SDS011;10632;51.276;7.116;2023-04-24T11:05:52;5.07;;;1.50;;
20945;SDS011;10632;51.276;7.116;2023-04-24T11:08:26;6.53;;;1.75;;
20945;SDS011;10632;51.276;7.116;2023-04-24T11:10:55;11.88;;;2.03;;
20945;SDS011;10632;51.276;7.116;2023-04-24T11:13:24;3.88;;;1.35;;
20945;SDS011;10632;51.276;7.116;2023-04-24T11:18:49;8.77;;;2.25;;
20945;SDS011;10632;51.276;7.116;2023-04-24T11:21:19;6.35;;;1.88;;
20945;SDS011;10632;51.276;7.116;2023-04-24T11:23:46;10.30;;;2.35;;
20945;SDS011;10632;51.276;7.116;2023-04-24T11:26:16;7.50;;;1.95;;
20945;SDS011;10632;51.276;7.116;2023-04-24T11:28:45;4.43;;;1.85;;
20945;SDS011;10632;51.276;7.116;2023-04-24T11:34:08;12.00;;;2.53;;
20945;SDS011;10632;51.276;7.116;2023-04-24T11:36:35;8.63;;;2.50;;
20945;SDS011;10632;51.276;7.116;2023-04-24T11:39:02;10.32;;;3.17;;
20945;SDS011;10632;51.276;7.116;2023-04-24T11:41:30;10.73;;;2.85;;
20945;SDS011;10632;51.276;7.116;2023-04-24T11:43:57;9.98;;;2.75;;
20945;SDS011;10632;51.276;7.116;2023-04-24T11:46:27;14.57;;;2.85;;
20945;SDS011;10632;51.276;7.116;2023-04-24T11:48:57;8.85;;;2.53;;
20945;SDS011;10632;51.276;7.116;2023-04-24T11:51:25;12.45;;;2.60;;
20945;SDS011;10632;51.276;7.116;2023-04-24T11:53:52;8.77;;;2.13;;
20945;SDS011;10632;51.276;7.116;2023-04-24T11:56:21;6.50;;;2.22;;
20945;SDS011;10632;51.276;7.116;2023-04-24T11:58:48;4.03;;;1.65;;
20945;SDS011;10632;51.276;7.116;2023-04-24T12:01:17;6.60;;;1.98;;
20945;SDS011;10632;51.276;7.116;2023-04-24T12:03:47;5.90;;;2.08;;
20945;SDS011;10632;51.276;7.116;2023-04-24T12:06:20;8.48;;;2.10;;
20945;SDS011;10632;51.276;7.116;2023-04-24T12:08:47;8.98;;;2.08;;
20945;SDS011;10632;51.276;7.116;2023-04-24T12:11:15;8.55;;;2.13;;
20945;SDS011;10632;51.276;7.116;2023-04-24T12:13:44;6.85;;;2.00;;
20945;SDS011;10632;51.276;7.116;2023-04-24T12:16:11;7.90;;;1.98;;
20945;SDS011;10632;51.276;7.116;2023-04-24T12:18:42;7.05;;;2.28;;
20945;SDS011;10632;51.276;7.116;2023-04-24T12:21:21;7.65;;;2.20;;
20945;SDS011;10632;51.276;7.116;2023-04-24T12:23:53;8.10;;;1.60;;
20945;SDS011;10632;51.276;7.116;2023-04-24T12:26:21;5.38;;;1.60;;
20945;SDS011;10632;51.276;7.116;2023-04-24T12:28:48;5.50;;;1.58;;
20945;SDS011;10632;51.276;7.116;2023-04-24T12:31:16;9.20;;;1.70;;
20945;SDS011;10632;51.276;7.116;2023-04-24T12:33:43;8.65;;;1.25;;
20945;SDS011;10632;51.276;7.116;2023-04-24T12:36:10;7.85;;;1.60;;
20945;SDS011;10632;51.276;7.116;2023-04-24T12:38:43;9.05;;;1.48;;
20945;SDS011;10632;51.276;7.116;2023-04-24T12:41:11;4.50;;;1.40;;
20945;SDS011;10632;51.276;7.116;2023-04-24T12:43:50;3.47;;;1.38;;
20945;SDS011;10632;51.276;7.116;2023-04-24T12:46:17;4.93;;;1.50;;
20945;SDS011;10632;51.276;7.116;2023-04-24T12:48:45;3.60;;;1.33;;
20945;SDS011;10632;51.276;7.116;2023-04-24T12:51:11;5.55;;;1.35;;
20945;SDS011;10632;51.276;7.116;2023-04-24T12:53:40;8.27;;;1.30;;
20945;SDS011;10632;51.276;7.116;2023-04-24T12:56:13;4.95;;;1.30;;
20945;SDS011;10632;51.276;7.116;2023-04-24T12:58:42;4.30;;;1.50;;
20945;SDS011;10632;51.276;7.116;2023-04-24T13:01:09;4.00;;;0.90;;
20945;SDS011;10632;51.276;7.116;2023-04-24T13:03:36;4.03;;;1.35;;
20945;SDS011;10632;51.276;7.116;2023-04-24T13:06:03;4.70;;;1.23;;
20945;SDS011;10632;51.276;7.116;2023-04-24T13:08:30;4.15;;;1.42;;
20945;SDS011;10632;51.276;7.116;2023-04-24T13:10:59;2.35;;;0.98;;
20945;SDS011;10632;51.276;7.116;2023-04-24T13:13:26;6.13;;;1.58;;
20945;SDS011;10632;51.276;7.116;2023-04-24T13:15:52;3.17;;;1.05;;
20945;SDS011;10632;51.276;7.116;2023-04-24T13:18:19;6.82;;;1.48;;
20945;SDS011;10632;51.276;7.116;2023-04-24T13:20:46;4.25;;;1.27;;
20945;SDS011;10632;51.276;7.116;2023-04-24T13:23:13;8.70;;;1.27;;
20945;SDS011;10632;51.276;7.116;2023-04-24T13:25:41;3.00;;;0.90;;
20945;SDS011;10632;51.276;7.116;2023-04-24T13:28:09;3.63;;;0.85;;
20945;SDS011;10632;51.276;7.116;2023-04-24T13:30:36;6.53;;;1.40;;
20945;SDS011;10632;51.276;7.116;2023-04-24T13:33:03;11.02;;;0.90;;
20945;SDS011;10632;51.276;7.116;2023-04-24T13:35:30;5.57;;;1.23;;
20945;SDS011;10632;51.276;7.116;2023-04-24T13:37:57;3.72;;;0.65;;
20945;SDS011;10632;51.276;7.116;2023-04-24T13:40:24;3.40;;;0.90;;
20945;SDS011;10632;51.276;7.116;2023-04-24T13:42:51;1.77;;;0.73;;
20945;SDS011;10632;51.276;7.116;2023-04-24T13:45:19;1.33;;;0.70;;
20945;SDS011;10632;51.276;7.116;2023-04-24T13:47:46;6.03;;;0.85;;
20945;SDS011;10632;51.276;7.116;2023-04-24T13:50:13;2.95;;;1.15;;
20945;SDS011;10632;51.276;7.116;2023-04-24T13:52:40;3.53;;;1.00;;
20945;SDS011;10632;51.276;7.116;2023-04-24T13:55:07;4.20;;;0.65;;
20945;SDS011;10632;51.276;7.116;2023-04-24T13:57:35;4.40;;;0.80;;
20945;SDS011;10632;51.276;7.116;2023-04-24T14:00:03;4.18;;;0.93;;
20945;SDS011;10632;51.276;7.116;2023-04-24T14:02:33;5.80;;;0.77;;
20945;SDS011;10632;51.276;7.116;2023-04-24T14:05:00;5.18;;;0.77;;
20945;SDS011;10632;51.276;7.116;2023-04-24T14:07:28;1.88;;;0.60;;
20945;SDS011;10632;51.276;7.116;2023-04-24T14:09:55;2.13;;;0.70;;
20945;SDS011;10632;51.276;7.116;2023-04-24T14:12:22;1.45;;;0.70;;
20945;SDS011;10632;51.276;7.116;2023-04-24T14:14:49;1.45;;;0.60;;
20945;SDS011;10632;51.276;7.116;2023-04-24T14:17:16;1.08;;;0.50;;
20945;SDS011;10632;51.276;7.116;2023-04-24T14:19:44;2.67;;;0.63;;
20945;SDS011;10632;51.276;7.116;2023-04-24T14:22:11;2.20;;;0.60;;
20945;SDS011;10632;51.276;7.116;2023-04-24T14:24:37;0.93;;;0.50;;
20945;SDS011;10632;51.276;7.116;2023-04-24T14:27:04;2.90;;;0.68;;
20945;SDS011;10632;51.276;7.116;2023-04-24T14:29:31;2.95;;;0.80;;
20945;SDS011;10632;51.276;7.116;2023-04-24T14:32:00;1.98;;;0.70;;
20945;SDS011;10632;51.276;7.116;2023-04-24T14:34:27;1.58;;;0.60;;
20945;SDS011;10632;51.276;7.116;2023-04-24T14:36:55;6.65;;;0.80;;
20945;SDS011;10632;51.276;7.116;2023-04-24T14:39:23;2.65;;;0.88;;
20945;SDS011;10632;51.276;7.116;2023-04-24T14:41:50;1.95;;;0.70;;
20945;SDS011;10632;51.276;7.116;2023-04-24T14:44:17;1.80;;;0.77;;
20945;SDS011;10632;51.276;7.116;2023-04-24T14:46:44;1.30;;;0.50;;
20945;SDS011;10632;51.276;7.116;2023-04-24T14:49:11;1.08;;;0.65;;
20945;SDS011;10632;51.276;7.116;2023-04-24T14:51:38;4.15;;;1.05;;
20945;SDS011;10632;51.276;7.116;2023-04-24T14:54:07;2.38;;;0.68;;
20945;SDS011;10632;51.276;7.116;2023-04-24T14:56:34;5.05;;;0.95;;